Queen Of Cowichan — CZ4990 — position and weather

sailwx.info

Track history (hours):
 
Tides and Currents Weather Stations Pressure Air Temp Water Temp Dewpoint Dewpoint Depression Visibility Wind Speed Wind Dir Waves Ship Positions

Queen Of Cowichan

Last reported at 2016-Sep-29 19:33 UTC. Time now 2016-Sep-29 20:25 UTC.
Position N 49°23' W 123°16'.

Length 139 m; draft 5.5 m.

Type: Passenger vessel. MMSI: 316001251.

Date/timePositionNaut miles runAvg speedWind from/ knotsBaromVisibWave heightAir tempDewpointWater temp
2016-Sep-29 19:33N 49°23' W 123°16'19 6.4
2016-Sep-29 16:34N 49°16' W 123°44'1919.1
2016-Sep-29 15:33N 49°23' W 123°17'7 7.3
2016-Sep-29 14:33N 49°18' W 123°24'2020.1
2016-Sep-29 13:33N 49°13' W 123°55'2 0.4
2016-Sep-29 08:08N 49°12' W 123°57'26 3.4
2016-Sep-29 00:34N 49°21' W 123°20'26 8.5
2016-Sep-28 21:31N 49°12' W 123°57'2914.5
2016-Sep-28 19:32N 49°23' W 123°16'19 6.2
2016-Sep-28 16:31N 49°16' W 123°43'1919.3
2016-Sep-28 15:33N 49°23' W 123°16'8 0.7
2016-Sep-28 03:33N 49°18' W 123°26'15 7.6
2016-Sep-28 01:33N 49°14' W 123°49'2110.4
2016-Sep-27 23:33N 49°22' W 123°19'2 0.5
2016-Sep-27 19:14N 49°23' W 123°16'5 1.0
2016-Sep-27 14:33N 49°19' W 123°21'2120.8
2016-Sep-27 13:33N 49°14' W 123°52'25 1.9
2016-Sep-27 00:34N 49°23' W 123°17'12 3.0
2016-Sep-26 20:33N 49°18' W 123°33'1212.2
2016-Sep-26 19:34N 49°23' W 123°16'0 0.1
2016-Sep-26 15:33N 49°23' W 123°16'2612.9
2016-Sep-26 13:33N 49°14' W 123°53'3 1.4
2016-Sep-26 11:05N 49°12' W 123°57'18 2.1
2016-Sep-26 02:34N 49°18' W 123°31'1110.7
2016-Sep-26 01:33N 49°23' W 123°16'9 8.6
2016-Sep-26 00:33N 49°26' W 123°28'18 6.1
2016-Sep-25 21:33N 49°14' W 123°50'6 1.4
2016-Sep-25 17:27N 49°12' W 123°57'0 0.0
2016-Sep-25 16:30N 49°12' W 123°57'0 0.0
2016-Sep-25 15:33N 49°12' W 123°57'0 0.0
2016-Sep-25 12:33N 49°12' W 123°57'0 0.0
2016-Sep-25 11:33N 49°12' W 123°57'0 0.0
2016-Sep-25 10:30N 49°12' W 123°57'0 0.0
2016-Sep-25 09:30N 49°12' W 123°57'0 0.0
2016-Sep-25 07:30N 49°12' W 123°57'0 0.0
2016-Sep-25 04:30N 49°12' W 123°57'0 0.0
2016-Sep-24 22:24N 49°12' W 123°57'0 0.0
2016-Sep-24 18:12N 49°12' W 123°57'0 0.0
2016-Sep-24 17:33N 49°12' W 123°57'0 0.0
2016-Sep-24 16:24N 49°12' W 123°57'0 0.0
2016-Sep-24 12:21N 49°12' W 123°57'0 0.0
2016-Sep-24 10:30N 49°12' W 123°57'0 0.0
2016-Sep-24 09:33N 49°12' W 123°57'29 4.8
2016-Sep-24 03:33N 49°23' W 123°16'1818.1
2016-Sep-24 02:33N 49°16' W 123°42'1110.7
2016-Sep-24 01:33N 49°12' W 123°57'2020.0
2016-Sep-24 00:33N 49°19' W 123°28'10 2.0
2016-Sep-23 19:34N 49°15' W 123°42'10 4.9
2016-Sep-23 17:25N 49°12' W 123°57'0 0.0
2016-Sep-23 16:31N 49°12' W 123°57'0 0.0
2016-Sep-23 15:26N 49°12' W 123°57'0 0.0
2016-Sep-23 13:25N 49°12' W 123°57'0 0.0
2016-Sep-23 06:26N 49°12' W 123°57'0 0.0
2016-Sep-23 04:32N 49°12' W 123°57'0 0.0
2016-Sep-23 02:31N 49°12' W 123°57'0 0.0
2016-Sep-23 00:31N 49°12' W 123°57'0 0.0
2016-Sep-22 23:31N 49°12' W 123°57'0 0.0
2016-Sep-22 20:26N 49°12' W 123°57'0 0.0
2016-Sep-22 12:10N 49°12' W 123°57'0 0.0
2016-Sep-22 00:26N 49°12' W 123°57'0 0.0
2016-Sep-21 23:32N 49°12' W 123°57'0 0.0
2016-Sep-21 22:25N 49°12' W 123°57'0 0.0
2016-Sep-21 09:28N 49°12' W 123°57'0 0.0
2016-Sep-21 08:28N 49°12' W 123°57'0 0.0
2016-Sep-20 17:31N 49°12' W 123°57'0 0.0
2016-Sep-20 13:19N 49°12' W 123°57'0 0.0
2016-Sep-20 10:31N 49°12' W 123°57'0 0.0
2016-Sep-20 07:31N 49°12' W 123°57'0 0.0
2016-Sep-20 06:28N 49°12' W 123°57'0 0.0
2016-Sep-20 02:31N 49°12' W 123°57'  
Track history (hours):
 
Tides and Currents Weather Stations Pressure Air Temp Water Temp Dewpoint Dewpoint Depression Visibility Wind Speed Wind Dir Waves Ship Positions

Queen Of Cowichan

Last reported at 2016-Sep-29 19:33 UTC. Time now 2016-Sep-29 20:25 UTC.
Position N 49°23' W 123°16'.

Length 139 m; draft 5.5 m.

Type: Passenger vessel. MMSI: 316001251.

Date/timePositionNaut miles runAvg speedWind from/ knotsBaromVisibWave heightAir tempDewpointWater temp
2016-Sep-29 19:33N 49°23' W 123°16'19 6.4
2016-Sep-29 16:34N 49°16' W 123°44'1919.1
2016-Sep-29 15:33N 49°23' W 123°17'7 7.3
2016-Sep-29 14:33N 49°18' W 123°24'2020.1
2016-Sep-29 13:33N 49°13' W 123°55'2 0.4
2016-Sep-29 08:08N 49°12' W 123°57'26 3.4
2016-Sep-29 00:34N 49°21' W 123°20'26 8.5
2016-Sep-28 21:31N 49°12' W 123°57'2914.5
2016-Sep-28 19:32N 49°23' W 123°16'19 6.2
2016-Sep-28 16:31N 49°16' W 123°43'1919.3
2016-Sep-28 15:33N 49°23' W 123°16'8 0.7
2016-Sep-28 03:33N 49°18' W 123°26'15 7.6
2016-Sep-28 01:33N 49°14' W 123°49'2110.4
2016-Sep-27 23:33N 49°22' W 123°19'2 0.5
2016-Sep-27 19:14N 49°23' W 123°16'5 1.0
2016-Sep-27 14:33N 49°19' W 123°21'2120.8
2016-Sep-27 13:33N 49°14' W 123°52'25 1.9
2016-Sep-27 00:34N 49°23' W 123°17'12 3.0
2016-Sep-26 20:33N 49°18' W 123°33'1212.2
2016-Sep-26 19:34N 49°23' W 123°16'0 0.1
2016-Sep-26 15:33N 49°23' W 123°16'2612.9
2016-Sep-26 13:33N 49°14' W 123°53'3 1.4
2016-Sep-26 11:05N 49°12' W 123°57'18 2.1
2016-Sep-26 02:34N 49°18' W 123°31'1110.7
2016-Sep-26 01:33N 49°23' W 123°16'9 8.6
2016-Sep-26 00:33N 49°26' W 123°28'18 6.1
2016-Sep-25 21:33N 49°14' W 123°50'6 1.4
2016-Sep-25 17:27N 49°12' W 123°57'0 0.0
2016-Sep-25 16:30N 49°12' W 123°57'0 0.0
2016-Sep-25 15:33N 49°12' W 123°57'0 0.0
2016-Sep-25 12:33N 49°12' W 123°57'0 0.0
2016-Sep-25 11:33N 49°12' W 123°57'0 0.0
2016-Sep-25 10:30N 49°12' W 123°57'0 0.0
2016-Sep-25 09:30N 49°12' W 123°57'0 0.0
2016-Sep-25 07:30N 49°12' W 123°57'0 0.0
2016-Sep-25 04:30N 49°12' W 123°57'0 0.0
2016-Sep-24 22:24N 49°12' W 123°57'0 0.0
2016-Sep-24 18:12N 49°12' W 123°57'0 0.0
2016-Sep-24 17:33N 49°12' W 123°57'0 0.0
2016-Sep-24 16:24N 49°12' W 123°57'0 0.0
2016-Sep-24 12:21N 49°12' W 123°57'0 0.0
2016-Sep-24 10:30N 49°12' W 123°57'0 0.0
2016-Sep-24 09:33N 49°12' W 123°57'29 4.8
2016-Sep-24 03:33N 49°23' W 123°16'1818.1
2016-Sep-24 02:33N 49°16' W 123°42'1110.7
2016-Sep-24 01:33N 49°12' W 123°57'2020.0
2016-Sep-24 00:33N 49°19' W 123°28'10 2.0
2016-Sep-23 19:34N 49°15' W 123°42'10 4.9
2016-Sep-23 17:25N 49°12' W 123°57'0 0.0
2016-Sep-23 16:31N 49°12' W 123°57'0 0.0
2016-Sep-23 15:26N 49°12' W 123°57'0 0.0
2016-Sep-23 13:25N 49°12' W 123°57'0 0.0
2016-Sep-23 06:26N 49°12' W 123°57'0 0.0
2016-Sep-23 04:32N 49°12' W 123°57'0 0.0
2016-Sep-23 02:31N 49°12' W 123°57'0 0.0
2016-Sep-23 00:31N 49°12' W 123°57'0 0.0
2016-Sep-22 23:31N 49°12' W 123°57'0 0.0
2016-Sep-22 20:26N 49°12' W 123°57'0 0.0
2016-Sep-22 12:10N 49°12' W 123°57'0 0.0
2016-Sep-22 00:26N 49°12' W 123°57'0 0.0
2016-Sep-21 23:32N 49°12' W 123°57'0 0.0
2016-Sep-21 22:25N 49°12' W 123°57'0 0.0
2016-Sep-21 09:28N 49°12' W 123°57'0 0.0
2016-Sep-21 08:28N 49°12' W 123°57'0 0.0
2016-Sep-20 17:31N 49°12' W 123°57'0 0.0
2016-Sep-20 13:19N 49°12' W 123°57'0 0.0
2016-Sep-20 10:31N 49°12' W 123°57'0 0.0
2016-Sep-20 07:31N 49°12' W 123°57'0 0.0
2016-Sep-20 06:28N 49°12' W 123°57'0 0.0
2016-Sep-20 02:31N 49°12' W 123°57'  

Dump ship's entire track history